Accueil
METAR-TAF:

METAR-TAF

Aéroports :

Irene, Afrique du Sud

latitude: 25-54-36S, longitude: 28-12-40E, altitude: 1523 m

Observation

Le bulletin a été fait il y a 2 heures et 2 minutes, à 07:54 UTC
Vent 5 kt de sud-est
Température 20°C
Humidité 28%
Pression 1028 hPa

METAR: FAIR 300754Z AUTO 14005KT //// // ////// 20/01 Q1028

Heure: 11:56 (09:56 UTC)


TAF: absent

Observations et prévisions météorologiques de plus de 4000 aéroports (messages METAR et TAF).

Les stations disponibles sont représentées par des disques jaunes et rouges sur la carte.

Passer la souris dessus pour voir le nom de la station.

Cliquer dessus pour voir les observations et prévisions météorologiques.

Pour changer de carte: cliquez sur les boutons verts avec une croix noire pour zoomer, sur le bouton vert avec un tiret pour effectuer un zoom arrière, ou sur les flèches vertes pour les cartes adjacentes.


METAR-TAF: